Wetterverlauf

Letzte Wetterlage 22.10.2014 11:10
Wetterdiagramm
Tabellarische Darstellung
Datum Temperatur Windchill Feuchte Luftdruck Windrichtung Windstärke Niederschlag
22.10.2014 11:10 7,1 °C 7,1 °C 94 % 1010,9 hPa 180 0.6 2,40 mm
22.10.2014 11:00 7,0 °C 7,0 °C 94 % 1011,1 hPa 286 0.5 0,00 mm
22.10.2014 10:45 6,9 °C 6,9 °C 95 % 1010,8 hPa 273 0.5 0,00 mm
22.10.2014 10:30 6,8 °C 6,8 °C 95 % 1011,0 hPa 351 0.5 0,00 mm
22.10.2014 10:10 6,7 °C 6,7 °C 96 % 1010,9 hPa 225 0.0 2,40 mm
22.10.2014 10:00 6,8 °C 6,8 °C 96 % 1010,8 hPa 229 0.0 0,00 mm
22.10.2014 09:45 6,9 °C 6,9 °C 96 % 1010,9 hPa 356 0.0 0,00 mm
22.10.2014 09:30 6,7 °C 6,7 °C 95 % 1010,8 hPa 278 0.0 0,00 mm
22.10.2014 09:10 6,7 °C 6,7 °C 95 % 1010,4 hPa 315 0.6 2,40 mm
22.10.2014 09:00 6,6 °C 6,6 °C 95 % 1010,3 hPa 288 0.5 0,00 mm
22.10.2014 08:45 6,5 °C 6,5 °C 96 % 1010,1 hPa 278 0.5 0,00 mm
22.10.2014 08:30 6,5 °C 6,5 °C 97 % 1010,0 hPa 289 0.5 0,00 mm
22.10.2014 08:10 6,4 °C 6,4 °C 98 % 1009,7 hPa 270 1.4 2,40 mm
22.10.2014 08:00 6,3 °C 6,3 °C 98 % 1009,5 hPa 279 0.5 0,00 mm
22.10.2014 07:45 6,2 °C 6,2 °C 99 % 1009,2 hPa 351 0.0 0,00 mm
22.10.2014 07:30 6,2 °C 6,2 °C 99 % 1009,2 hPa 258 0.0 0,00 mm
22.10.2014 07:10 6,0 °C 6,0 °C 99 % 1008,8 hPa 338 1.4 2,40 mm
22.10.2014 07:00 5,8 °C 5,8 °C 99 % 1008,5 hPa 307 0.5 0,60 mm
22.10.2014 06:45 5,5 °C 5,5 °C 99 % 1008,4 hPa 331 0.5 0,90 mm
22.10.2014 06:30 5,1 °C 5,1 °C 99 % 1008,4 hPa 357 0.5 1,20 mm
22.10.2014 06:10 5,1 °C 5,1 °C 99 % 1008,5 hPa 315 0.6 2,10 mm
22.10.2014 06:00 5,1 °C 5,1 °C 99 % 1008,5 hPa 348 0.5 1,80 mm
22.10.2014 05:45 5,2 °C 5,2 °C 98 % 1008,4 hPa 283 0.5 1,50 mm
22.10.2014 05:30 5,4 °C 5,4 °C 97 % 1008,3 hPa 258 0.5 1,20 mm
22.10.2014 05:10 5,9 °C 5,9 °C 95 % 1008,0 hPa 0 1.9 0,30 mm
Empfehlen Sie wetter.com
| Mehr
Neue Wetterwarnung

Neue Niederschlagsmeldung
Neue Meldung
Regen Liveticker
    sehr starker Regen/Gewitter
    starker Regen/Gewitter
    mäßiger bis starker Regen
    mäßiger Regen
    leichter bis mäßiger Regen
    kein Regen